sensor_id;sensor_type;location;lat;lon;timestamp;temperature;humidity
28530;DHT22;15737;49.760;6.632;2023-07-13T00:04:37;14.50;97.10
28530;DHT22;15737;49.760;6.632;2023-07-13T00:07:03;14.50;97.10
28530;DHT22;15737;49.760;6.632;2023-07-13T00:09:28;14.60;97.20
28530;DHT22;15737;49.760;6.632;2023-07-13T00:11:56;14.80;97.20
28530;DHT22;15737;49.760;6.632;2023-07-13T00:14:23;14.80;97.10
28530;DHT22;15737;49.760;6.632;2023-07-13T00:16:49;14.90;97.10
28530;DHT22;15737;49.760;6.632;2023-07-13T00:19:15;14.90;97.30
28530;DHT22;15737;49.760;6.632;2023-07-13T00:21:41;14.90;97.20
28530;DHT22;15737;49.760;6.632;2023-07-13T00:24:10;14.90;97.20
28530;DHT22;15737;49.760;6.632;2023-07-13T00:26:38;15.00;97.20
28530;DHT22;15737;49.760;6.632;2023-07-13T00:29:04;15.00;97.30
28530;DHT22;15737;49.760;6.632;2023-07-13T00:31:34;15.00;97.20
28530;DHT22;15737;49.760;6.632;2023-07-13T00:36:31;15.00;97.40
28530;DHT22;15737;49.760;6.632;2023-07-13T00:38:57;15.00;97.80
28530;DHT22;15737;49.760;6.632;2023-07-13T00:41:22;14.90;98.00
28530;DHT22;15737;49.760;6.632;2023-07-13T00:43:48;14.90;98.00
28530;DHT22;15737;49.760;6.632;2023-07-13T00:46:21;15.00;98.00
28530;DHT22;15737;49.760;6.632;2023-07-13T00:48:48;15.10;98.10
28530;DHT22;15737;49.760;6.632;2023-07-13T00:51:16;15.10;98.30
28530;DHT22;15737;49.760;6.632;2023-07-13T00:53:43;15.20;98.40
28530;DHT22;15737;49.760;6.632;2023-07-13T00:56:09;15.20;98.40
28530;DHT22;15737;49.760;6.632;2023-07-13T00:58:35;15.20;98.20
28530;DHT22;15737;49.760;6.632;2023-07-13T01:01:01;15.30;98.10
28530;DHT22;15737;49.760;6.632;2023-07-13T01:03:30;15.60;98.00
28530;DHT22;15737;49.760;6.632;2023-07-13T01:05:55;15.60;97.70
28530;DHT22;15737;49.760;6.632;2023-07-13T01:08:22;15.60;97.70
28530;DHT22;15737;49.760;6.632;2023-07-13T01:10:52;15.50;97.80
28530;DHT22;15737;49.760;6.632;2023-07-13T01:13:18;15.70;97.90
28530;DHT22;15737;49.760;6.632;2023-07-13T01:15:47;15.70;97.80
28530;DHT22;15737;49.760;6.632;2023-07-13T01:18:25;15.80;97.60
28530;DHT22;15737;49.760;6.632;2023-07-13T01:20:56;15.80;97.90
28530;DHT22;15737;49.760;6.632;2023-07-13T01:23:23;15.70;98.20
28530;DHT22;15737;49.760;6.632;2023-07-13T01:25:50;15.60;98.30
28530;DHT22;15737;49.760;6.632;2023-07-13T01:28:16;15.50;98.40
28530;DHT22;15737;49.760;6.632;2023-07-13T01:30:43;15.50;98.40
28530;DHT22;15737;49.760;6.632;2023-07-13T01:33:12;15.50;98.50
28530;DHT22;15737;49.760;6.632;2023-07-13T01:35:37;15.60;99.10
28530;DHT22;15737;49.760;6.632;2023-07-13T01:43:06;15.60;99.20
28530;DHT22;15737;49.760;6.632;2023-07-13T01:45:32;15.70;99.20
28530;DHT22;15737;49.760;6.632;2023-07-13T01:47:58;15.70;99.30
28530;DHT22;15737;49.760;6.632;2023-07-13T01:50:24;15.70;99.40
28530;DHT22;15737;49.760;6.632;2023-07-13T01:52:50;15.70;99.70
28530;DHT22;15737;49.760;6.632;2023-07-13T01:55:16;15.60;99.60
28530;DHT22;15737;49.760;6.632;2023-07-13T01:57:41;15.60;99.70
28530;DHT22;15737;49.760;6.632;2023-07-13T02:00:09;15.60;99.80
28530;DHT22;15737;49.760;6.632;2023-07-13T02:02:35;15.50;99.80
28530;DHT22;15737;49.760;6.632;2023-07-13T02:05:00;15.50;99.80
28530;DHT22;15737;49.760;6.632;2023-07-13T02:07:26;15.50;99.80
28530;DHT22;15737;49.760;6.632;2023-07-13T02:09:52;15.50;99.90
28530;DHT22;15737;49.760;6.632;2023-07-13T02:12:17;15.50;99.90
28530;DHT22;15737;49.760;6.632;2023-07-13T02:14:43;15.50;99.90
28530;DHT22;15737;49.760;6.632;2023-07-13T02:17:09;15.50;99.90
28530;DHT22;15737;49.760;6.632;2023-07-13T02:19:35;15.60;99.90
28530;DHT22;15737;49.760;6.632;2023-07-13T02:22:01;15.60;99.90
28530;DHT22;15737;49.760;6.632;2023-07-13T02:24:27;15.60;99.90
28530;DHT22;15737;49.760;6.632;2023-07-13T02:26:52;15.50;99.90
28530;DHT22;15737;49.760;6.632;2023-07-13T02:29:18;15.60;99.90
28530;DHT22;15737;49.760;6.632;2023-07-13T02:31:43;15.60;99.90
28530;DHT22;15737;49.760;6.632;2023-07-13T02:34:09;15.60;99.90
28530;DHT22;15737;49.760;6.632;2023-07-13T02:36:34;15.60;99.90
28530;DHT22;15737;49.760;6.632;2023-07-13T02:39:02;15.60;99.90
28530;DHT22;15737;49.760;6.632;2023-07-13T02:41:28;15.60;99.90
28530;DHT22;15737;49.760;6.632;2023-07-13T02:43:53;15.50;99.90
28530;DHT22;15737;49.760;6.632;2023-07-13T02:46:19;15.50;99.90
28530;DHT22;15737;49.760;6.632;2023-07-13T02:48:45;15.50;99.90
28530;DHT22;15737;49.760;6.632;2023-07-13T02:51:11;15.70;99.90
28530;DHT22;15737;49.760;6.632;2023-07-13T02:53:37;15.70;99.90
28530;DHT22;15737;49.760;6.632;2023-07-13T02:56:04;15.70;99.90
28530;DHT22;15737;49.760;6.632;2023-07-13T02:58:30;15.70;99.90
28530;DHT22;15737;49.760;6.632;2023-07-13T03:00:56;15.70;99.90
28530;DHT22;15737;49.760;6.632;2023-07-13T03:03:23;15.70;99.90
28530;DHT22;15737;49.760;6.632;2023-07-13T03:05:58;15.70;99.90
28530;DHT22;15737;49.760;6.632;2023-07-13T03:08:25;15.80;99.90
28530;DHT22;15737;49.760;6.632;2023-07-13T03:11:11;15.70;99.90
28530;DHT22;15737;49.760;6.632;2023-07-13T03:13:37;15.60;99.90
28530;DHT22;15737;49.760;6.632;2023-07-13T03:16:03;15.60;99.90
28530;DHT22;15737;49.760;6.632;2023-07-13T03:18:29;15.50;99.90
28530;DHT22;15737;49.760;6.632;2023-07-13T03:20:55;15.40;99.90
28530;DHT22;15737;49.760;6.632;2023-07-13T03:23:22;15.40;99.90
28530;DHT22;15737;49.760;6.632;2023-07-13T03:25:48;15.40;99.90
28530;DHT22;15737;49.760;6.632;2023-07-13T03:28:14;15.30;99.90
28530;DHT22;15737;49.760;6.632;2023-07-13T03:30:40;15.30;99.90
28530;DHT22;15737;49.760;6.632;2023-07-13T03:33:06;15.20;99.90
28530;DHT22;15737;49.760;6.632;2023-07-13T03:35:31;15.10;99.90
28530;DHT22;15737;49.760;6.632;2023-07-13T03:37:58;15.00;99.90
28530;DHT22;15737;49.760;6.632;2023-07-13T03:40:25;14.90;99.90
28530;DHT22;15737;49.760;6.632;2023-07-13T03:42:51;14.80;99.90
28530;DHT22;15737;49.760;6.632;2023-07-13T03:45:17;14.80;99.90
28530;DHT22;15737;49.760;6.632;2023-07-13T03:47:43;14.90;99.90
28530;DHT22;15737;49.760;6.632;2023-07-13T03:50:08;14.90;99.90
28530;DHT22;15737;49.760;6.632;2023-07-13T03:52:34;14.90;99.90
28530;DHT22;15737;49.760;6.632;2023-07-13T03:55:00;14.80;99.90
28530;DHT22;15737;49.760;6.632;2023-07-13T03:57:25;14.70;99.90
28530;DHT22;15737;49.760;6.632;2023-07-13T03:59:51;14.80;99.90
28530;DHT22;15737;49.760;6.632;2023-07-13T04:02:17;14.90;99.90
28530;DHT22;15737;49.760;6.632;2023-07-13T04:04:43;15.10;99.90
28530;DHT22;15737;49.760;6.632;2023-07-13T04:07:08;15.30;99.90
28530;DHT22;15737;49.760;6.632;2023-07-13T04:09:35;15.50;99.90
28530;DHT22;15737;49.760;6.632;2023-07-13T04:12:01;15.60;99.90
28530;DHT22;15737;49.760;6.632;2023-07-13T04:14:26;15.60;99.90
28530;DHT22;15737;49.760;6.632;2023-07-13T04:17:00;15.60;99.90
28530;DHT22;15737;49.760;6.632;2023-07-13T04:19:26;15.60;99.90
28530;DHT22;15737;49.760;6.632;2023-07-13T04:21:51;15.60;99.90
28530;DHT22;15737;49.760;6.632;2023-07-13T04:24:17;15.60;99.90
28530;DHT22;15737;49.760;6.632;2023-07-13T04:26:42;15.60;99.90
28530;DHT22;15737;49.760;6.632;2023-07-13T04:29:08;15.80;99.90
28530;DHT22;15737;49.760;6.632;2023-07-13T04:31:33;16.10;99.90
28530;DHT22;15737;49.760;6.632;2023-07-13T04:33:59;16.30;99.90
28530;DHT22;15737;49.760;6.632;2023-07-13T04:36:25;16.60;99.90
28530;DHT22;15737;49.760;6.632;2023-07-13T04:38:53;16.90;99.90
28530;DHT22;15737;49.760;6.632;2023-07-13T04:41:20;17.20;99.90
28530;DHT22;15737;49.760;6.632;2023-07-13T04:43:46;17.40;99.90
28530;DHT22;15737;49.760;6.632;2023-07-13T04:46:14;17.70;99.80
28530;DHT22;15737;49.760;6.632;2023-07-13T04:48:39;17.90;99.00
28530;DHT22;15737;49.760;6.632;2023-07-13T04:51:05;18.20;98.70
28530;DHT22;15737;49.760;6.632;2023-07-13T04:53:31;18.30;98.00
28530;DHT22;15737;49.760;6.632;2023-07-13T04:55:57;18.40;97.80
28530;DHT22;15737;49.760;6.632;2023-07-13T04:58:24;18.60;97.30
28530;DHT22;15737;49.760;6.632;2023-07-13T05:00:50;18.80;96.90
28530;DHT22;15737;49.760;6.632;2023-07-13T05:03:16;18.90;96.50
28530;DHT22;15737;49.760;6.632;2023-07-13T05:05:41;19.10;96.20
28530;DHT22;15737;49.760;6.632;2023-07-13T05:08:07;19.00;96.00
28530;DHT22;15737;49.760;6.632;2023-07-13T05:10:33;19.00;95.90
28530;DHT22;15737;49.760;6.632;2023-07-13T05:12:58;19.00;95.70
28530;DHT22;15737;49.760;6.632;2023-07-13T05:15:24;19.10;95.40
28530;DHT22;15737;49.760;6.632;2023-07-13T05:17:50;19.30;94.90
28530;DHT22;15737;49.760;6.632;2023-07-13T05:22:49;19.60;94.00
28530;DHT22;15737;49.760;6.632;2023-07-13T05:25:15;19.90;93.40
28530;DHT22;15737;49.760;6.632;2023-07-13T05:27:41;20.30;92.70
28530;DHT22;15737;49.760;6.632;2023-07-13T05:30:07;20.80;91.60
28530;DHT22;15737;49.760;6.632;2023-07-13T05:32:36;21.30;90.70
28530;DHT22;15737;49.760;6.632;2023-07-13T05:35:01;21.60;89.40
28530;DHT22;15737;49.760;6.632;2023-07-13T05:37:28;21.80;88.30
28530;DHT22;15737;49.760;6.632;2023-07-13T05:39:53;21.70;87.30
28530;DHT22;15737;49.760;6.632;2023-07-13T05:42:19;21.70;87.00
28530;DHT22;15737;49.760;6.632;2023-07-13T05:44:44;21.90;85.40
28530;DHT22;15737;49.760;6.632;2023-07-13T05:47:10;21.90;85.00
28530;DHT22;15737;49.760;6.632;2023-07-13T05:49:35;21.90;84.20
28530;DHT22;15737;49.760;6.632;2023-07-13T05:52:01;21.90;83.80
28530;DHT22;15737;49.760;6.632;2023-07-13T05:54:26;22.10;82.90
28530;DHT22;15737;49.760;6.632;2023-07-13T05:56:52;22.40;82.00
28530;DHT22;15737;49.760;6.632;2023-07-13T05:59:18;23.20;79.50
28530;DHT22;15737;49.760;6.632;2023-07-13T06:01:43;23.40;78.70
28530;DHT22;15737;49.760;6.632;2023-07-13T06:04:09;23.10;78.40
28530;DHT22;15737;49.760;6.632;2023-07-13T06:06:34;23.50;77.20
28530;DHT22;15737;49.760;6.632;2023-07-13T06:09:00;24.50;74.70
28530;DHT22;15737;49.760;6.632;2023-07-13T06:11:26;25.20;71.80
28530;DHT22;15737;49.760;6.632;2023-07-13T06:13:53;25.90;69.10
28530;DHT22;15737;49.760;6.632;2023-07-13T06:16:19;26.60;66.10
28530;DHT22;15737;49.760;6.632;2023-07-13T06:18:45;26.50;64.70
28530;DHT22;15737;49.760;6.632;2023-07-13T06:21:16;26.20;64.90
28530;DHT22;15737;49.760;6.632;2023-07-13T06:23:43;26.50;64.70
28530;DHT22;15737;49.760;6.632;2023-07-13T06:26:09;27.80;60.70
28530;DHT22;15737;49.760;6.632;2023-07-13T06:28:35;27.80;59.10
28530;DHT22;15737;49.760;6.632;2023-07-13T06:31:01;26.70;60.40
28530;DHT22;15737;49.760;6.632;2023-07-13T06:33:27;25.60;63.30
28530;DHT22;15737;49.760;6.632;2023-07-13T06:35:53;25.90;61.90
28530;DHT22;15737;49.760;6.632;2023-07-13T06:38:20;26.40;61.20
28530;DHT22;15737;49.760;6.632;2023-07-13T06:40:46;28.20;57.40
28530;DHT22;15737;49.760;6.632;2023-07-13T06:43:12;28.40;56.50
28530;DHT22;15737;49.760;6.632;2023-07-13T06:45:43;29.20;54.10
28530;DHT22;15737;49.760;6.632;2023-07-13T06:48:11;28.80;55.10
28530;DHT22;15737;49.760;6.632;2023-07-13T06:50:36;28.80;54.40
28530;DHT22;15737;49.760;6.632;2023-07-13T06:53:02;29.20;53.40
28530;DHT22;15737;49.760;6.632;2023-07-13T06:55:27;30.50;51.90
28530;DHT22;15737;49.760;6.632;2023-07-13T06:57:53;30.60;50.60
28530;DHT22;15737;49.760;6.632;2023-07-13T07:00:18;30.20;50.80
28530;DHT22;15737;49.760;6.632;2023-07-13T07:02:44;31.70;49.00
28530;DHT22;15737;49.760;6.632;2023-07-13T07:05:10;32.70;47.20
28530;DHT22;15737;49.760;6.632;2023-07-13T07:07:35;34.10;45.30
28530;DHT22;15737;49.760;6.632;2023-07-13T07:10:01;35.40;42.60
28530;DHT22;15737;49.760;6.632;2023-07-13T07:12:28;35.80;42.00
28530;DHT22;15737;49.760;6.632;2023-07-13T07:14:53;36.10;40.30
28530;DHT22;15737;49.760;6.632;2023-07-13T07:17:19;35.70;40.60
28530;DHT22;15737;49.760;6.632;2023-07-13T07:19:44;35.50;40.50
28530;DHT22;15737;49.760;6.632;2023-07-13T07:22:10;34.60;41.00
28530;DHT22;15737;49.760;6.632;2023-07-13T07:24:35;34.10;41.80
28530;DHT22;15737;49.760;6.632;2023-07-13T07:27:01;33.60;41.90
28530;DHT22;15737;49.760;6.632;2023-07-13T07:29:27;33.20;43.30
28530;DHT22;15737;49.760;6.632;2023-07-13T07:31:53;34.90;41.70
28530;DHT22;15737;49.760;6.632;2023-07-13T07:34:19;37.00;38.90
28530;DHT22;15737;49.760;6.632;2023-07-13T07:36:45;37.70;37.80
28530;DHT22;15737;49.760;6.632;2023-07-13T07:39:10;37.40;38.20
28530;DHT22;15737;49.760;6.632;2023-07-13T07:41:36;36.20;39.20
28530;DHT22;15737;49.760;6.632;2023-07-13T07:44:02;35.90;39.40
28530;DHT22;15737;49.760;6.632;2023-07-13T07:46:28;35.90;38.00
28530;DHT22;15737;49.760;6.632;2023-07-13T07:48:55;33.70;40.20
28530;DHT22;15737;49.760;6.632;2023-07-13T07:51:20;33.70;40.40
28530;DHT22;15737;49.760;6.632;2023-07-13T07:53:47;34.20;39.50
28530;DHT22;15737;49.760;6.632;2023-07-13T07:56:12;34.80;39.10
28530;DHT22;15737;49.760;6.632;2023-07-13T07:58:38;35.10;37.90
28530;DHT22;15737;49.760;6.632;2023-07-13T08:01:07;33.80;38.40
28530;DHT22;15737;49.760;6.632;2023-07-13T08:03:32;30.70;42.10
28530;DHT22;15737;49.760;6.632;2023-07-13T08:05:58;28.90;45.00
28530;DHT22;15737;49.760;6.632;2023-07-13T08:08:24;28.00;46.50
28530;DHT22;15737;49.760;6.632;2023-07-13T08:10:50;28.10;46.70
28530;DHT22;15737;49.760;6.632;2023-07-13T08:13:15;28.30;46.60
28530;DHT22;15737;49.760;6.632;2023-07-13T08:15:41;29.30;45.20
28530;DHT22;15737;49.760;6.632;2023-07-13T08:18:06;29.40;45.00
28530;DHT22;15737;49.760;6.632;2023-07-13T08:20:37;28.60;45.60
28530;DHT22;15737;49.760;6.632;2023-07-13T08:23:03;28.60;46.00
28530;DHT22;15737;49.760;6.632;2023-07-13T08:25:29;28.70;45.80
28530;DHT22;15737;49.760;6.632;2023-07-13T08:27:55;29.20;45.60
28530;DHT22;15737;49.760;6.632;2023-07-13T08:30:20;29.70;44.40
28530;DHT22;15737;49.760;6.632;2023-07-13T08:32:46;28.90;45.30
28530;DHT22;15737;49.760;6.632;2023-07-13T08:35:11;29.30;45.10
28530;DHT22;15737;49.760;6.632;2023-07-13T08:37:38;29.50;44.80
28530;DHT22;15737;49.760;6.632;2023-07-13T08:40:04;30.10;43.80
28530;DHT22;15737;49.760;6.632;2023-07-13T08:42:37;30.70;43.10
28530;DHT22;15737;49.760;6.632;2023-07-13T08:45:13;31.50;42.00
28530;DHT22;15737;49.760;6.632;2023-07-13T08:48:11;32.70;40.70
28530;DHT22;15737;49.760;6.632;2023-07-13T08:50:52;34.50;38.90
28530;DHT22;15737;49.760;6.632;2023-07-13T08:53:19;34.00;37.60
28530;DHT22;15737;49.760;6.632;2023-07-13T08:55:46;32.30;39.80
28530;DHT22;15737;49.760;6.632;2023-07-13T08:58:14;32.10;40.00
28530;DHT22;15737;49.760;6.632;2023-07-13T09:01:03;33.30;39.80
28530;DHT22;15737;49.760;6.632;2023-07-13T09:03:37;34.80;37.60
28530;DHT22;15737;49.760;6.632;2023-07-13T09:06:06;32.40;39.90
28530;DHT22;15737;49.760;6.632;2023-07-13T09:08:54;31.50;41.80
28530;DHT22;15737;49.760;6.632;2023-07-13T09:11:36;32.90;39.90
28530;DHT22;15737;49.760;6.632;2023-07-13T09:17:15;32.30;40.20
28530;DHT22;15737;49.760;6.632;2023-07-13T09:19:43;30.90;40.70
28530;DHT22;15737;49.760;6.632;2023-07-13T09:22:14;29.30;42.50
28530;DHT22;15737;49.760;6.632;2023-07-13T09:24:51;28.60;43.70
28530;DHT22;15737;49.760;6.632;2023-07-13T09:27:21;28.90;43.70
28530;DHT22;15737;49.760;6.632;2023-07-13T09:32:43;29.80;42.90
28530;DHT22;15737;49.760;6.632;2023-07-13T09:35:12;28.30;44.30
28530;DHT22;15737;49.760;6.632;2023-07-13T09:37:38;28.70;44.20
28530;DHT22;15737;49.760;6.632;2023-07-13T09:40:13;28.50;43.70
28530;DHT22;15737;49.760;6.632;2023-07-13T09:42:42;28.60;44.00
28530;DHT22;15737;49.760;6.632;2023-07-13T09:45:07;29.10;43.10
28530;DHT22;15737;49.760;6.632;2023-07-13T09:47:39;29.20;43.20
28530;DHT22;15737;49.760;6.632;2023-07-13T09:50:15;30.10;42.00
28530;DHT22;15737;49.760;6.632;2023-07-13T09:52:47;31.30;41.00
28530;DHT22;15737;49.760;6.632;2023-07-13T09:57:56;31.20;40.70
28530;DHT22;15737;49.760;6.632;2023-07-13T10:03:17;29.20;43.30
28530;DHT22;15737;49.760;6.632;2023-07-13T10:05:45;27.30;45.70
28530;DHT22;15737;49.760;6.632;2023-07-13T10:08:31;27.60;46.00
28530;DHT22;15737;49.760;6.632;2023-07-13T10:11:09;29.80;42.90
28530;DHT22;15737;49.760;6.632;2023-07-13T10:13:37;30.20;41.70
28530;DHT22;15737;49.760;6.632;2023-07-13T10:16:07;29.30;42.70
28530;DHT22;15737;49.760;6.632;2023-07-13T10:18:46;29.90;42.00
28530;DHT22;15737;49.760;6.632;2023-07-13T10:21:21;30.20;41.70
28530;DHT22;15737;49.760;6.632;2023-07-13T10:24:23;30.00;41.80
28530;DHT22;15737;49.760;6.632;2023-07-13T10:26:57;30.90;41.00
28530;DHT22;15737;49.760;6.632;2023-07-13T10:29:27;31.60;40.50
28530;DHT22;15737;49.760;6.632;2023-07-13T10:31:53;32.00;39.90
28530;DHT22;15737;49.760;6.632;2023-07-13T10:34:18;31.10;40.30
28530;DHT22;15737;49.760;6.632;2023-07-13T10:36:47;29.10;42.10
28530;DHT22;15737;49.760;6.632;2023-07-13T10:39:19;28.70;42.60
28530;DHT22;15737;49.760;6.632;2023-07-13T10:42:05;29.80;41.50
28530;DHT22;15737;49.760;6.632;2023-07-13T10:44:32;29.50;41.70
28530;DHT22;15737;49.760;6.632;2023-07-13T10:47:01;29.60;41.90
28530;DHT22;15737;49.760;6.632;2023-07-13T10:49:29;29.80;41.70
28530;DHT22;15737;49.760;6.632;2023-07-13T10:51:56;29.40;42.50
28530;DHT22;15737;49.760;6.632;2023-07-13T10:54:37;29.00;43.00
28530;DHT22;15737;49.760;6.632;2023-07-13T10:57:21;28.30;44.10
28530;DHT22;15737;49.760;6.632;2023-07-13T11:02:28;27.50;45.60
28530;DHT22;15737;49.760;6.632;2023-07-13T11:04:55;27.90;45.10
28530;DHT22;15737;49.760;6.632;2023-07-13T11:07:28;27.40;45.60
28530;DHT22;15737;49.760;6.632;2023-07-13T11:09:56;27.70;45.40
28530;DHT22;15737;49.760;6.632;2023-07-13T11:17:34;29.60;43.10
28530;DHT22;15737;49.760;6.632;2023-07-13T11:25:36;29.10;44.00
28530;DHT22;15737;49.760;6.632;2023-07-13T11:28:36;29.90;42.20
28530;DHT22;15737;49.760;6.632;2023-07-13T11:31:21;28.50;42.70
28530;DHT22;15737;49.760;6.632;2023-07-13T11:34:02;27.10;44.90
28530;DHT22;15737;49.760;6.632;2023-07-13T11:36:53;26.50;45.90
28530;DHT22;15737;49.760;6.632;2023-07-13T11:39:35;26.70;46.50
28530;DHT22;15737;49.760;6.632;2023-07-13T11:42:10;26.50;45.90
28530;DHT22;15737;49.760;6.632;2023-07-13T11:44:50;26.10;46.80
28530;DHT22;15737;49.760;6.632;2023-07-13T11:47:31;25.70;47.20
28530;DHT22;15737;49.760;6.632;2023-07-13T11:50:21;25.50;47.80
28530;DHT22;15737;49.760;6.632;2023-07-13T11:53:02;25.20;48.60
28530;DHT22;15737;49.760;6.632;2023-07-13T11:55:42;24.70;48.30
28530;DHT22;15737;49.760;6.632;2023-07-13T11:58:24;24.40;48.70
28530;DHT22;15737;49.760;6.632;2023-07-13T12:01:06;24.40;49.30
28530;DHT22;15737;49.760;6.632;2023-07-13T12:03:52;24.70;49.20
28530;DHT22;15737;49.760;6.632;2023-07-13T12:06:32;24.80;49.10
28530;DHT22;15737;49.760;6.632;2023-07-13T12:09:11;24.60;49.00
28530;DHT22;15737;49.760;6.632;2023-07-13T12:11:44;24.30;49.00
28530;DHT22;15737;49.760;6.632;2023-07-13T12:14:14;24.20;49.30
28530;DHT22;15737;49.760;6.632;2023-07-13T12:16:40;24.10;49.70
28530;DHT22;15737;49.760;6.632;2023-07-13T12:19:21;24.20;50.10
28530;DHT22;15737;49.760;6.632;2023-07-13T12:21:53;24.10;50.50
28530;DHT22;15737;49.760;6.632;2023-07-13T12:24:36;24.10;50.80
28530;DHT22;15737;49.760;6.632;2023-07-13T12:27:26;24.30;50.90
28530;DHT22;15737;49.760;6.632;2023-07-13T12:30:24;24.50;50.90
28530;DHT22;15737;49.760;6.632;2023-07-13T12:33:14;24.70;50.30
28530;DHT22;15737;49.760;6.632;2023-07-13T12:35:57;25.00;50.60
28530;DHT22;15737;49.760;6.632;2023-07-13T12:38:34;25.40;50.30
28530;DHT22;15737;49.760;6.632;2023-07-13T12:41:13;25.50;50.50
28530;DHT22;15737;49.760;6.632;2023-07-13T12:43:55;25.70;49.80
28530;DHT22;15737;49.760;6.632;2023-07-13T12:46:38;25.80;49.10
28530;DHT22;15737;49.760;6.632;2023-07-13T12:49:26;25.80;49.00
28530;DHT22;15737;49.760;6.632;2023-07-13T12:52:17;25.70;48.90
28530;DHT22;15737;49.760;6.632;2023-07-13T12:55:17;25.90;47.10
28530;DHT22;15737;49.760;6.632;2023-07-13T12:58:00;25.50;46.90
28530;DHT22;15737;49.760;6.632;2023-07-13T13:00:50;25.10;47.50
28530;DHT22;15737;49.760;6.632;2023-07-13T13:06:26;24.80;47.00
28530;DHT22;15737;49.760;6.632;2023-07-13T13:09:05;24.30;47.80
28530;DHT22;15737;49.760;6.632;2023-07-13T13:11:54;24.10;48.50
28530;DHT22;15737;49.760;6.632;2023-07-13T13:14:30;24.00;48.90
28530;DHT22;15737;49.760;6.632;2023-07-13T13:17:24;23.90;49.00
28530;DHT22;15737;49.760;6.632;2023-07-13T13:19:56;24.00;49.10
28530;DHT22;15737;49.760;6.632;2023-07-13T13:22:38;24.80;48.60
28530;DHT22;15737;49.760;6.632;2023-07-13T13:25:18;25.50;47.50
28530;DHT22;15737;49.760;6.632;2023-07-13T13:28:01;25.30;47.50
28530;DHT22;15737;49.760;6.632;2023-07-13T13:30:44;24.90;48.40
28530;DHT22;15737;49.760;6.632;2023-07-13T13:33:22;24.80;49.00
28530;DHT22;15737;49.760;6.632;2023-07-13T13:36:03;24.60;49.70
28530;DHT22;15737;49.760;6.632;2023-07-13T13:38:36;24.50;50.20
28530;DHT22;15737;49.760;6.632;2023-07-13T13:41:17;24.30;50.40
28530;DHT22;15737;49.760;6.632;2023-07-13T13:43:57;24.30;50.50
28530;DHT22;15737;49.760;6.632;2023-07-13T13:46:43;24.30;51.10
28530;DHT22;15737;49.760;6.632;2023-07-13T13:49:29;24.20;51.40
28530;DHT22;15737;49.760;6.632;2023-07-13T13:52:10;24.10;51.70
28530;DHT22;15737;49.760;6.632;2023-07-13T13:54:49;24.30;52.00
28530;DHT22;15737;49.760;6.632;2023-07-13T13:57:27;24.30;51.70
28530;DHT22;15737;49.760;6.632;2023-07-13T14:00:05;24.60;51.20
28530;DHT22;15737;49.760;6.632;2023-07-13T14:02:45;25.00;50.60
28530;DHT22;15737;49.760;6.632;2023-07-13T14:05:28;25.20;50.30
28530;DHT22;15737;49.760;6.632;2023-07-13T14:08:11;25.20;50.30
28530;DHT22;15737;49.760;6.632;2023-07-13T14:10:55;25.30;50.10
28530;DHT22;15737;49.760;6.632;2023-07-13T14:13:42;25.30;50.50
28530;DHT22;15737;49.760;6.632;2023-07-13T14:16:21;25.20;50.30
28530;DHT22;15737;49.760;6.632;2023-07-13T14:19:04;25.50;49.80
28530;DHT22;15737;49.760;6.632;2023-07-13T14:21:46;25.40;50.20
28530;DHT22;15737;49.760;6.632;2023-07-13T14:24:26;25.60;49.60
28530;DHT22;15737;49.760;6.632;2023-07-13T14:27:02;25.50;49.70
28530;DHT22;15737;49.760;6.632;2023-07-13T14:29:40;25.50;49.70
28530;DHT22;15737;49.760;6.632;2023-07-13T14:32:24;25.90;49.30
28530;DHT22;15737;49.760;6.632;2023-07-13T14:35:04;26.30;49.30
28530;DHT22;15737;49.760;6.632;2023-07-13T14:37:50;26.40;48.70
28530;DHT22;15737;49.760;6.632;2023-07-13T14:40:30;26.10;49.30
28530;DHT22;15737;49.760;6.632;2023-07-13T14:43:13;26.30;49.00
28530;DHT22;15737;49.760;6.632;2023-07-13T14:45:49;25.90;49.10
28530;DHT22;15737;49.760;6.632;2023-07-13T14:48:28;25.50;49.90
28530;DHT22;15737;49.760;6.632;2023-07-13T14:51:03;25.40;51.10
28530;DHT22;15737;49.760;6.632;2023-07-13T14:53:28;25.80;50.20
28530;DHT22;15737;49.760;6.632;2023-07-13T14:55:54;25.90;50.30
28530;DHT22;15737;49.760;6.632;2023-07-13T14:58:20;25.70;51.00
28530;DHT22;15737;49.760;6.632;2023-07-13T15:00:46;25.80;51.00
28530;DHT22;15737;49.760;6.632;2023-07-13T15:03:19;26.10;50.60
28530;DHT22;15737;49.760;6.632;2023-07-13T15:05:47;26.70;50.40
28530;DHT22;15737;49.760;6.632;2023-07-13T15:08:13;27.80;49.10
28530;DHT22;15737;49.760;6.632;2023-07-13T15:10:38;27.90;47.70
28530;DHT22;15737;49.760;6.632;2023-07-13T15:13:18;27.20;48.30
28530;DHT22;15737;49.760;6.632;2023-07-13T15:15:47;26.70;49.40
28530;DHT22;15737;49.760;6.632;2023-07-13T15:18:14;26.90;49.30
28530;DHT22;15737;49.760;6.632;2023-07-13T15:20:42;27.10;49.30
28530;DHT22;15737;49.760;6.632;2023-07-13T15:23:11;27.30;48.80
28530;DHT22;15737;49.760;6.632;2023-07-13T15:25:37;27.00;48.30
28530;DHT22;15737;49.760;6.632;2023-07-13T15:28:03;26.60;48.80
28530;DHT22;15737;49.760;6.632;2023-07-13T15:30:43;26.70;49.10
28530;DHT22;15737;49.760;6.632;2023-07-13T15:33:21;26.60;47.90
28530;DHT22;15737;49.760;6.632;2023-07-13T15:35:47;26.20;48.40
28530;DHT22;15737;49.760;6.632;2023-07-13T15:38:23;26.40;48.20
28530;DHT22;15737;49.760;6.632;2023-07-13T15:40:57;26.20;48.50
28530;DHT22;15737;49.760;6.632;2023-07-13T15:43:23;25.70;49.10
28530;DHT22;15737;49.760;6.632;2023-07-13T15:45:49;25.50;49.60
28530;DHT22;15737;49.760;6.632;2023-07-13T15:48:21;25.50;50.00
28530;DHT22;15737;49.760;6.632;2023-07-13T15:50:53;25.70;49.50
28530;DHT22;15737;49.760;6.632;2023-07-13T15:53:29;25.80;49.40
28530;DHT22;15737;49.760;6.632;2023-07-13T15:55:55;26.00;49.30
28530;DHT22;15737;49.760;6.632;2023-07-13T15:58:21;26.30;48.60
28530;DHT22;15737;49.760;6.632;2023-07-13T16:00:47;26.10;48.50
28530;DHT22;15737;49.760;6.632;2023-07-13T16:03:16;25.90;49.30
28530;DHT22;15737;49.760;6.632;2023-07-13T16:05:42;25.90;49.50
28530;DHT22;15737;49.760;6.632;2023-07-13T16:08:20;26.10;49.90
28530;DHT22;15737;49.760;6.632;2023-07-13T16:10:47;26.00;49.80
28530;DHT22;15737;49.760;6.632;2023-07-13T16:13:21;25.90;50.00
28530;DHT22;15737;49.760;6.632;2023-07-13T16:15:47;25.90;50.30
28530;DHT22;15737;49.760;6.632;2023-07-13T16:18:13;25.80;50.40
28530;DHT22;15737;49.760;6.632;2023-07-13T16:20:43;25.80;50.70
28530;DHT22;15737;49.760;6.632;2023-07-13T16:23:11;25.60;51.00
28530;DHT22;15737;49.760;6.632;2023-07-13T16:25:37;25.30;51.20
28530;DHT22;15737;49.760;6.632;2023-07-13T16:28:03;25.00;51.80
28530;DHT22;15737;49.760;6.632;2023-07-13T16:30:31;24.90;52.20
28530;DHT22;15737;49.760;6.632;2023-07-13T16:32:59;25.30;52.20